Pagrindinis puslapis
METAR-TAF:

METAR-TAF

Oro uostai :

Jasai, Rumunija

platuma: 47-10N, ilguma: 027-38E, Aukštis: 102 m

Dabartinis oras

Ataskaita buvo paskelbta 15 minutes, ne 01:30 UTC
Vėjas 4 kt iš Vakarų/Pietvakarių
Temperatūra 6°C
Drėgmė 45%
Slėgis 1022 hPa
Matomumas 10 km arba daugiau
nėra debesų žemiau 1500 m ir nėra kamuolinių lietaus debesų

METAR: LRIA 090130Z 25004KT CAVOK 06/M05 Q1022

Laikas: 04:45 (01:45 UTC)

Prognozė

Ataskaita buvo paskelbta 2 valandos ir 45 minutes, ne 23:00 UTC
Prognozė galioja nuo 09 metu 00 UTC su 09 metu 09 UTC
Vėjas 4 kt nuo kintamojo kryptimis
Matomumas 10 km arba daugiau
nėra debesų žemiau 1500 m ir nėra kamuolinių lietaus debesų

TAF: LRIA 082300Z 0900/0909 VRB04KT CAVOK

Orai ataskaitas ir orų prognozės (METAR, TAF).

turimą stotys yra geltonos ir raudonos taškus žemėlapyje.

Perkelti pele per norėdami pamatyti stoties vardą.

Tada spustelėkite, norėdami matyti oro stebėjimo ir prognozės.

Norėdami pakeisti žemėlapį: spustelėkite ant žalios mygtukų su juodo kryžiaus žemyn,; žalią mygtuką su brūkšneliu, jei norite nutolinti; arba žalių rodyklių gretimoms žemėlapius.


METAR-TAF: